createdAt,value
2019-02-15T00:02:07.246Z,99506.17
2019-02-15T00:04:42.371Z,99501.22
2019-02-15T00:07:19.400Z,99504.17
2019-02-15T00:09:52.222Z,99502.55
2019-02-15T00:12:27.226Z,99500.67
2019-02-15T00:15:00.784Z,99502.76
2019-02-15T00:17:34.452Z,99501.47
2019-02-15T00:20:08.252Z,99500.97
2019-02-15T00:22:41.717Z,99503.13
2019-02-15T00:25:15.274Z,99500.37
2019-02-15T00:27:50.081Z,99507.33
2019-02-15T00:30:23.725Z,99504.50
2019-02-15T00:32:57.568Z,99506.78
2019-02-15T00:35:31.681Z,99505.41
2019-02-15T00:38:07.168Z,99505.19
2019-02-15T00:40:42.350Z,99504.70
2019-02-15T00:43:22.089Z,99501.08
2019-02-15T00:45:51.221Z,99500.63
2019-02-15T00:48:24.780Z,99503.18
2019-02-15T00:50:58.387Z,99505.84
2019-02-15T00:53:31.956Z,99501.63
2019-02-15T00:56:06.820Z,99499.32
2019-02-15T00:58:40.402Z,99493.23
2019-02-15T01:01:13.808Z,99493.78
2019-02-15T01:03:47.666Z,99492.87
2019-02-15T01:06:22.465Z,99497.81
2019-02-15T01:08:56.320Z,99497.09
2019-02-15T01:11:30.006Z,99499.23
2019-02-15T01:14:03.914Z,99503.80
2019-02-15T01:16:37.468Z,99499.73
2019-02-15T01:19:11.333Z,99501.64
2019-02-15T01:21:45.304Z,99497.27
2019-02-15T01:24:19.011Z,99497.92
2019-02-15T01:26:53.843Z,99500.78
2019-02-15T01:29:27.569Z,99496.31
2019-02-15T01:32:02.192Z,99495.98
2019-02-15T01:34:36.793Z,99489.34
2019-02-15T01:37:10.597Z,99489.57
2019-02-15T01:39:44.271Z,99486.83
2019-02-15T01:42:18.194Z,99488.85
2019-02-15T01:44:52.364Z,99483.31
2019-02-15T01:47:25.988Z,99480.05
2019-02-15T01:49:59.947Z,99478.30
2019-02-15T01:52:34.301Z,99479.13
2019-02-15T01:55:09.104Z,99479.96
2019-02-15T01:57:44.370Z,99472.38
2019-02-15T02:00:19.965Z,99473.88
2019-02-15T02:02:53.804Z,99471.88
2019-02-15T02:05:27.474Z,99480.15
2019-02-15T02:08:02.728Z,99484.98
2019-02-15T02:10:37.463Z,99481.23
2019-02-15T02:13:14.687Z,99486.82
2019-02-15T02:15:48.509Z,99484.04
2019-02-15T02:18:22.583Z,99479.53
2019-02-15T02:20:56.276Z,99479.30
2019-02-15T02:23:30.182Z,99479.30
2019-02-15T02:26:04.044Z,99480.20
2019-02-15T02:28:37.876Z,99475.91
2019-02-15T02:31:11.500Z,99469.28
2019-02-15T02:33:45.321Z,99472.09
2019-02-15T02:36:19.236Z,99464.61
2019-02-15T02:38:52.826Z,99473.42
2019-02-15T02:41:26.457Z,99472.63
2019-02-15T02:44:00.303Z,99480.95
2019-02-15T02:46:33.876Z,99486.23
2019-02-15T02:49:10.443Z,99481.41
2019-02-15T02:51:44.078Z,99488.20
2019-02-15T02:54:17.800Z,99485.02
2019-02-15T02:56:51.469Z,99478.73
2019-02-15T02:59:24.922Z,99485.91
2019-02-15T03:01:58.468Z,99474.58
2019-02-15T03:04:32.063Z,99478.41
2019-02-15T03:07:15.163Z,99480.17
2019-02-15T03:15:37.725Z,99464.22
2019-02-15T03:18:12.422Z,99465.87
2019-02-15T03:20:46.306Z,99462.42
2019-02-15T03:23:19.887Z,99459.70
2019-02-15T03:25:53.348Z,99457.52
2019-02-15T03:28:26.839Z,99461.52
2019-02-15T03:31:01.498Z,99460.48
2019-02-15T03:33:37.799Z,99449.81
2019-02-15T03:36:13.447Z,99446.44
2019-02-15T03:38:48.694Z,99449.97
2019-02-15T03:41:25.224Z,99443.16
2019-02-15T03:44:01.475Z,99441.20
2019-02-15T03:46:37.017Z,99431.38
2019-02-15T03:49:12.855Z,99425.44
2019-02-15T03:51:47.800Z,99428.03
2019-02-15T03:54:22.470Z,99424.16
2019-02-15T03:56:57.614Z,99428.81
2019-02-15T03:59:32.168Z,99421.92
2019-02-15T04:02:06.052Z,99421.89
2019-02-15T04:04:41.454Z,99414.39
2019-02-15T04:07:15.828Z,99413.77
2019-02-15T04:09:49.699Z,99401.53
2019-02-15T04:12:28.008Z,99401.53
2019-02-15T04:15:06.801Z,99405.70
2019-02-15T04:17:41.575Z,99399.49
2019-02-15T04:20:16.799Z,99394.48
2019-02-15T04:22:50.767Z,99391.98
2019-02-15T04:25:34.240Z,99392.13
2019-02-15T04:28:10.296Z,99395.92
2019-02-15T04:30:44.629Z,99399.34
2019-02-15T04:33:21.315Z,99404.25
2019-02-15T04:35:57.309Z,99400.14
2019-02-15T04:38:33.929Z,99404.39
2019-02-15T04:41:10.962Z,99395.35
2019-02-15T04:43:45.534Z,99404.63
2019-02-15T04:46:20.962Z,99409.55
2019-02-15T04:49:02.225Z,99406.16
2019-02-15T04:51:34.951Z,99405.93
2019-02-15T04:54:13.543Z,99402.03
2019-02-15T04:56:49.240Z,99404.28
2019-02-15T04:59:25.327Z,99415.22
2019-02-15T05:01:59.717Z,99405.83
2019-02-15T05:04:35.725Z,99414.28
2019-02-15T05:07:10.228Z,99417.85
2019-02-15T05:09:46.533Z,99412.45
2019-02-15T05:12:20.999Z,99413.85
2019-02-15T05:14:56.218Z,99423.86
2019-02-15T05:17:30.467Z,99415.72
2019-02-15T05:20:04.909Z,99417.50
2019-02-15T05:22:39.459Z,99411.39
2019-02-15T05:25:14.064Z,99413.55
2019-02-15T05:27:48.627Z,99415.45
2019-02-15T05:30:22.950Z,99418.62
2019-02-15T05:32:57.235Z,99423.05
2019-02-15T05:35:31.808Z,99424.27
2019-02-15T05:38:07.366Z,99423.01
2019-02-15T05:40:41.967Z,99419.47
2019-02-15T05:43:16.336Z,99423.66
2019-02-15T05:45:50.776Z,99430.33
2019-02-15T05:48:28.118Z,99428.80
2019-02-15T05:51:02.595Z,99430.59
2019-02-15T05:53:36.965Z,99436.55
2019-02-15T05:56:11.340Z,99435.58
2019-02-15T05:58:47.201Z,99440.95
2019-02-15T06:01:21.613Z,99446.94
2019-02-15T06:03:55.696Z,99446.87
2019-02-15T06:06:30.140Z,99449.02
2019-02-15T06:09:04.482Z,99453.30
2019-02-15T06:11:38.948Z,99449.85
2019-02-15T06:14:13.533Z,99450.44
2019-02-15T06:16:47.837Z,99452.70
2019-02-15T06:19:25.018Z,99451.27
2019-02-15T06:22:01.048Z,99455.95
2019-02-15T06:24:35.486Z,99468.48
2019-02-15T06:27:11.943Z,99458.53
2019-02-15T06:29:46.286Z,99465.53
2019-02-15T06:32:20.762Z,99466.14
2019-02-15T06:34:55.024Z,99467.02
2019-02-15T06:37:29.743Z,99465.61
2019-02-15T06:40:04.206Z,99466.94
2019-02-15T06:42:38.597Z,99469.88
2019-02-15T06:45:13.014Z,99466.56
2019-02-15T06:47:47.417Z,99475.11
2019-02-15T06:50:21.875Z,99472.77
2019-02-15T06:52:55.963Z,99480.88
2019-02-15T06:55:30.500Z,99475.48
2019-02-15T06:58:05.025Z,99470.97
2019-02-15T07:00:39.495Z,99482.36
2019-02-15T07:03:14.042Z,99483.62
2019-02-15T07:05:48.751Z,99479.79
2019-02-15T07:08:22.990Z,99479.95
2019-02-15T07:10:57.296Z,99479.53
2019-02-15T07:13:31.633Z,99477.61
2019-02-15T07:16:07.900Z,99472.52
2019-02-15T07:18:44.052Z,99478.69
2019-02-15T07:21:20.007Z,99477.28
2019-02-15T07:23:54.772Z,99478.39
2019-02-15T07:26:35.587Z,99479.28
2019-02-15T07:29:51.386Z,99480.03
2019-02-15T07:32:26.521Z,99481.31
2019-02-15T07:35:02.575Z,99485.73
2019-02-15T07:37:37.400Z,99480.28
2019-02-15T07:40:13.536Z,99476.55
2019-02-15T07:42:50.716Z,99474.98
2019-02-15T07:45:25.494Z,99482.03
2019-02-15T07:48:03.490Z,99481.80
2019-02-15T07:50:38.102Z,99478.16
2019-02-15T07:53:13.150Z,99479.22
2019-02-15T07:55:47.984Z,99484.16
2019-02-15T07:58:22.939Z,99492.09
2019-02-15T08:00:58.647Z,99483.68
2019-02-15T08:03:35.315Z,99487.35
2019-02-15T08:06:10.650Z,99492.36
2019-02-15T08:08:45.456Z,99494.72
2019-02-15T08:11:20.765Z,99495.83
2019-02-15T08:13:55.865Z,99497.39
2019-02-15T08:16:31.529Z,99494.83
2019-02-15T08:19:06.686Z,99507.13
2019-02-15T08:21:41.819Z,99500.03
2019-02-15T08:24:16.572Z,99500.76
2019-02-15T08:26:51.477Z,99506.91
2019-02-15T08:29:25.886Z,99512.30
2019-02-15T08:32:00.750Z,99524.92
2019-02-15T08:34:35.554Z,99526.38
2019-02-15T08:37:11.310Z,99526.98
2019-02-15T08:39:46.033Z,99524.22
2019-02-15T08:42:20.449Z,99518.95
2019-02-15T08:44:55.229Z,99525.77
2019-02-15T08:47:29.816Z,99521.37
2019-02-15T08:50:04.337Z,99524.11
2019-02-15T08:52:40.483Z,99528.59
2019-02-15T08:55:15.581Z,99533.31
2019-02-15T08:57:50.353Z,99534.48
2019-02-15T09:00:25.245Z,99535.14
2019-02-15T09:03:00.029Z,99537.74
2019-02-15T09:05:35.696Z,99539.46
2019-02-15T09:08:11.168Z,99533.76
2019-02-15T09:10:46.722Z,99538.30
2019-02-15T09:13:22.357Z,99542.40
2019-02-15T09:15:58.805Z,99544.06
2019-02-15T09:18:37.292Z,99557.70
2019-02-15T09:21:12.273Z,99557.70
2019-02-15T09:23:49.315Z,99558.25
2019-02-15T09:26:25.627Z,99560.49
2019-02-15T09:29:02.570Z,99570.77
2019-02-15T09:31:41.348Z,99575.52
2019-02-15T09:34:16.365Z,99578.22
2019-02-15T09:36:53.945Z,99582.13
2019-02-15T09:39:28.793Z,99582.63
2019-02-15T09:42:03.263Z,99586.42
2019-02-15T09:44:38.184Z,99596.83
2019-02-15T09:47:14.648Z,99585.12
2019-02-15T09:49:50.489Z,99590.58
2019-02-15T09:52:29.739Z,99594.84
2019-02-15T09:55:06.132Z,99596.66
2019-02-15T09:57:42.568Z,99595.83
2019-02-15T10:00:20.793Z,99606.28
2019-02-15T10:02:57.723Z,99605.28
2019-02-15T10:05:35.288Z,99610.60
2019-02-15T10:08:10.949Z,99614.08
2019-02-15T10:10:46.075Z,99617.88
2019-02-15T10:13:22.518Z,99616.64
2019-02-15T10:15:59.902Z,99622.80
2019-02-15T10:18:35.229Z,99625.66
2019-02-15T10:21:11.126Z,99623.14
2019-02-15T10:32:34.242Z,99639.58
2019-02-15T10:35:21.369Z,99632.95
2019-02-15T10:37:56.245Z,99637.11
2019-02-15T10:40:31.253Z,99640.80
2019-02-15T10:43:06.849Z,99640.19
2019-02-15T10:45:42.406Z,99641.19
2019-02-15T10:48:18.582Z,99643.48
2019-02-15T10:50:53.628Z,99650.84
2019-02-15T10:53:32.142Z,99660.52
2019-02-15T10:56:07.333Z,99661.69
2019-02-15T10:58:42.925Z,99664.17
2019-02-15T11:01:18.204Z,99671.48
2019-02-15T11:03:54.640Z,99668.52
2019-02-15T11:06:29.848Z,99672.17
2019-02-15T11:09:05.862Z,99677.67
2019-02-15T11:11:41.682Z,99679.66
2019-02-15T11:14:18.885Z,99679.98
2019-02-15T11:16:58.033Z,99679.34
2019-02-15T11:19:32.781Z,99686.81
2019-02-15T11:22:07.931Z,99684.14
2019-02-15T11:24:47.341Z,99685.98
2019-02-15T11:27:23.099Z,99681.17
2019-02-15T11:29:58.509Z,99687.65
2019-02-15T11:32:34.294Z,99690.94
2019-02-15T11:35:11.576Z,99700.61
2019-02-15T11:37:49.381Z,99699.62
2019-02-15T11:40:26.697Z,99702.08
2019-02-15T11:43:04.208Z,99700.06
2019-02-15T11:45:39.451Z,99708.94
2019-02-15T11:48:15.372Z,99719.87
2019-02-15T11:50:50.687Z,99710.23
2019-02-15T11:53:26.309Z,99710.58
2019-02-15T11:56:01.991Z,99712.73
2019-02-15T11:58:37.958Z,99719.39
2019-02-15T12:01:13.524Z,99725.38
2019-02-15T12:03:49.555Z,99723.38
2019-02-15T12:06:24.809Z,99720.37
2019-02-15T12:09:00.712Z,99729.54
2019-02-15T12:11:35.822Z,99728.05
2019-02-15T12:14:13.190Z,99728.05
2019-02-15T12:16:49.172Z,99735.03
2019-02-15T12:19:25.015Z,99741.86
2019-02-15T12:22:02.523Z,99742.02
2019-02-15T12:24:40.263Z,99752.64
2019-02-15T12:27:19.055Z,99751.50
2019-02-15T12:29:56.081Z,99752.66
2019-02-15T12:32:31.531Z,99760.66
2019-02-15T12:35:16.501Z,99759.63
2019-02-15T12:37:54.583Z,99761.97
2019-02-15T12:40:30.499Z,99759.64
2019-02-15T12:43:10.299Z,99766.47
2019-02-15T12:45:46.314Z,99772.11
2019-02-15T12:48:21.551Z,99773.44
2019-02-15T12:51:02.511Z,99771.78
2019-02-15T12:53:37.935Z,99776.11
2019-02-15T12:56:15.303Z,99780.09
2019-02-15T12:58:50.834Z,99779.94
2019-02-15T13:01:28.837Z,99772.30
2019-02-15T13:04:05.273Z,99779.09
2019-02-15T13:06:43.134Z,99772.96
2019-02-15T13:09:21.274Z,99775.28
2019-02-15T13:11:58.306Z,99783.74
2019-02-15T13:14:36.211Z,99787.23
2019-02-15T13:17:14.172Z,99788.23
2019-02-15T13:19:47.428Z,99789.42
2019-02-15T13:22:22.360Z,99789.91
2019-02-15T13:24:57.763Z,99789.58
2019-02-15T13:27:35.263Z,99786.91
2019-02-15T13:30:12.916Z,99782.44
2019-02-15T13:32:48.751Z,99779.76
2019-02-15T13:35:30.150Z,99776.94
2019-02-15T13:38:06.525Z,99781.27
2019-02-15T13:40:42.314Z,99785.42
2019-02-15T13:43:24.835Z,99789.41
2019-02-15T13:46:01.137Z,99788.41
2019-02-15T13:48:36.747Z,99786.89
2019-02-15T13:51:22.234Z,99782.25
2019-02-15T13:53:58.463Z,99790.22
2019-02-15T13:56:35.618Z,99781.24
2019-02-15T13:59:11.630Z,99779.55
2019-02-15T14:01:48.083Z,99787.69
2019-02-15T14:04:26.491Z,99793.66
2019-02-15T14:07:04.727Z,99782.83
2019-02-15T14:09:40.240Z,99783.13
2019-02-15T14:12:19.328Z,99780.94
2019-02-15T14:17:48.709Z,99772.25
2019-02-15T14:26:10.911Z,99767.15
2019-02-15T14:28:47.570Z,99772.95
2019-02-15T14:31:22.765Z,99771.72
2019-02-15T14:34:00.480Z,99775.13
2019-02-15T14:36:37.673Z,99776.41
2019-02-15T14:39:16.784Z,99769.45
2019-02-15T14:41:56.031Z,99774.44
2019-02-15T14:44:28.715Z,99777.00
2019-02-15T14:47:05.274Z,99776.48
2019-02-15T14:49:39.901Z,99778.17
2019-02-15T14:52:16.747Z,99780.23
2019-02-15T14:54:51.642Z,99782.32
2019-02-15T14:57:26.172Z,99779.95
2019-02-15T15:00:02.724Z,99781.88
2019-02-15T15:02:37.784Z,99783.11
2019-02-15T15:05:13.967Z,99785.02
2019-02-15T15:07:48.568Z,99782.19
2019-02-15T15:10:25.953Z,99777.79
2019-02-15T15:12:58.640Z,99785.33
2019-02-15T15:15:33.850Z,99777.90
2019-02-15T15:18:15.062Z,99779.77
2019-02-15T15:20:52.463Z,99781.62
2019-02-15T15:23:25.183Z,99782.25
2019-02-15T15:25:59.644Z,99784.41
2019-02-15T15:28:33.999Z,99789.88
2019-02-15T15:31:11.254Z,99791.86
2019-02-15T15:33:47.297Z,99792.66
2019-02-15T15:36:21.947Z,99794.02
2019-02-15T15:39:03.204Z,99787.55
2019-02-15T15:41:39.390Z,99790.78
2019-02-15T15:44:14.528Z,99789.70
2019-02-15T15:46:48.748Z,99792.24
2019-02-15T15:49:28.464Z,99795.81
2019-02-15T15:52:02.782Z,99792.96
2019-02-15T15:54:37.151Z,99789.91
2019-02-15T15:57:11.363Z,99795.46
2019-02-15T15:59:45.652Z,99805.22
2019-02-15T16:02:20.078Z,99805.28
2019-02-15T16:04:54.385Z,99803.89
2019-02-15T16:07:30.443Z,99803.27
2019-02-15T16:10:04.671Z,99807.20
2019-02-15T16:12:39.198Z,99814.36
2019-02-15T16:15:17.410Z,99808.30
2019-02-15T16:17:51.464Z,99815.09
2019-02-15T16:20:25.826Z,99813.39
2019-02-15T16:23:02.845Z,99811.09
2019-02-15T16:25:37.505Z,99809.38
2019-02-15T16:28:12.052Z,99808.44
2019-02-15T16:30:46.234Z,99803.91
2019-02-15T16:33:20.729Z,99804.51
2019-02-15T16:36:00.642Z,99804.71
2019-02-15T16:38:33.681Z,99804.25
2019-02-15T16:41:15.678Z,99807.80
2019-02-15T16:43:47.081Z,99808.68
2019-02-15T16:46:24.040Z,99809.38
2019-02-15T16:48:58.422Z,99810.53
2019-02-15T16:51:35.117Z,99811.33
2019-02-15T16:54:07.941Z,99807.19
2019-02-15T16:56:48.142Z,99815.27
2019-02-15T16:59:25.896Z,99824.97
2019-02-15T17:02:00.122Z,99814.27
2019-02-15T17:04:34.696Z,99820.00
2019-02-15T17:07:18.349Z,99817.30
2019-02-15T17:09:50.663Z,99821.40
2019-02-15T17:12:25.137Z,99827.23
2019-02-15T17:14:59.676Z,99829.69
2019-02-15T17:17:35.925Z,99827.13
2019-02-15T17:20:11.877Z,99825.64
2019-02-15T17:22:46.209Z,99831.05
2019-02-15T17:25:20.914Z,99824.41
2019-02-15T17:27:55.207Z,99837.03
2019-02-15T17:30:29.541Z,99835.22
2019-02-15T17:33:03.846Z,99835.55
2019-02-15T17:35:38.229Z,99835.78
2019-02-15T17:38:43.751Z,99837.62
2019-02-15T17:41:02.541Z,99843.48
2019-02-15T17:43:37.344Z,99846.08
2019-02-15T17:46:15.670Z,99846.56
2019-02-15T17:49:00.342Z,99845.62
2019-02-15T17:51:27.356Z,99850.00
2019-02-15T17:54:01.707Z,99849.91
2019-02-15T17:56:36.223Z,99848.23
2019-02-15T17:59:13.175Z,99852.28
2019-02-15T18:01:51.156Z,99852.23
2019-02-15T18:04:28.000Z,99844.24
2019-02-15T18:07:07.554Z,99845.56
2019-02-15T18:09:44.765Z,99836.44
2019-02-15T18:12:19.363Z,99840.42
2019-02-15T18:14:57.895Z,99845.76
2019-02-15T18:17:33.380Z,99845.76
2019-02-15T18:20:08.451Z,99838.61
2019-02-15T18:22:42.801Z,99843.19
2019-02-15T18:25:17.145Z,99846.02
2019-02-15T18:27:51.748Z,99851.49
2019-02-15T18:30:29.106Z,99849.14
2019-02-15T18:33:01.623Z,99858.32
2019-02-15T18:35:35.933Z,99864.83
2019-02-15T18:38:10.286Z,99863.63
2019-02-15T18:40:44.695Z,99857.87
2019-02-15T18:43:19.116Z,99853.17
2019-02-15T18:45:56.015Z,99860.09
2019-02-15T18:48:31.032Z,99854.75
2019-02-15T18:51:10.938Z,99859.35
2019-02-15T18:53:48.070Z,99865.21
2019-02-15T18:56:22.725Z,99852.05
2019-02-15T18:58:57.083Z,99849.02
2019-02-15T19:01:34.702Z,99847.50
2019-02-15T19:04:09.292Z,99844.44
2019-02-15T19:06:43.598Z,99846.34
2019-02-15T19:09:20.504Z,99844.73
2019-02-15T19:11:53.583Z,99840.55
2019-02-15T19:14:27.986Z,99842.94
2019-02-15T19:17:02.263Z,99838.48
2019-02-15T19:19:40.208Z,99841.38
2019-02-15T19:22:12.061Z,99838.30
2019-02-15T19:24:46.181Z,99839.39
2019-02-15T19:27:20.312Z,99838.16
2019-02-15T19:29:54.815Z,99840.03
2019-02-15T19:32:32.126Z,99834.11
2019-02-15T19:35:07.323Z,99839.03
2019-02-15T19:37:39.575Z,99841.67
2019-02-15T19:40:16.876Z,99839.61
2019-02-15T19:42:52.755Z,99840.03
2019-02-15T19:45:29.419Z,99845.80
2019-02-15T19:48:03.701Z,99827.61
2019-02-15T19:50:38.076Z,99827.13
2019-02-15T19:53:12.431Z,99827.00
2019-02-15T19:55:48.756Z,99823.38
2019-02-15T19:58:22.258Z,99820.32
2019-02-15T20:00:57.510Z,99817.23
2019-02-15T20:03:33.145Z,99818.30
2019-02-15T20:06:07.889Z,99811.40
2019-02-15T20:08:42.353Z,99815.45
2019-02-15T20:11:16.769Z,99815.25
2019-02-15T20:13:53.387Z,99815.38
2019-02-15T20:16:28.175Z,99813.00
2019-02-15T20:19:02.534Z,99809.87
2019-02-15T20:21:36.875Z,99819.83
2019-02-15T20:24:11.089Z,99811.97
2019-02-15T20:26:45.579Z,99811.91
2019-02-15T20:29:23.291Z,99819.21
2019-02-15T20:31:57.722Z,99817.10
2019-02-15T20:34:34.572Z,99816.75
2019-02-15T20:37:09.383Z,99821.88
2019-02-15T20:39:44.445Z,99821.13
2019-02-15T20:42:18.655Z,99814.76
2019-02-15T20:44:56.769Z,99821.48
2019-02-15T20:47:31.596Z,99827.80
2019-02-15T20:50:05.871Z,99818.50
2019-02-15T20:52:43.919Z,99822.82
2019-02-15T20:55:20.076Z,99824.40
2019-02-15T20:57:59.824Z,99828.52
2019-02-15T21:00:32.956Z,99825.87
2019-02-15T21:03:07.540Z,99824.20
2019-02-15T21:05:41.905Z,99821.16
2019-02-15T21:08:18.758Z,99826.27
2019-02-15T21:10:55.438Z,99833.61
2019-02-15T21:13:28.405Z,99832.33
2019-02-15T21:16:02.759Z,99831.36
2019-02-15T21:18:43.145Z,99832.61
2019-02-15T21:21:17.259Z,99832.81
2019-02-15T21:23:51.538Z,99838.17
2019-02-15T21:26:25.805Z,99841.16
2019-02-15T21:29:00.366Z,99837.61
2019-02-15T21:31:36.374Z,99843.95
2019-02-15T21:34:10.818Z,99837.61
2019-02-15T21:36:45.042Z,99847.02
2019-02-15T21:39:19.153Z,99851.91
2019-02-15T21:41:55.045Z,99851.72
2019-02-15T21:44:29.466Z,99853.39
2019-02-15T21:47:05.930Z,99856.09
2019-02-15T21:49:40.184Z,99852.48
2019-02-15T21:52:14.439Z,99856.60
2019-02-15T21:54:48.502Z,99859.95
2019-02-15T21:57:22.595Z,99849.71
2019-02-15T21:59:56.951Z,99848.59
2019-02-15T22:02:31.933Z,99855.42
2019-02-15T22:05:06.815Z,99855.33
2019-02-15T22:07:45.853Z,99854.23
2019-02-15T22:10:21.093Z,99849.63
2019-02-15T22:12:57.525Z,99848.92
2019-02-15T22:15:32.925Z,99851.14
2019-02-15T22:18:09.489Z,99847.11
2019-02-15T22:20:44.000Z,99861.51
2019-02-15T22:23:18.216Z,99866.44
2019-02-15T22:26:02.830Z,99867.34
2019-02-15T22:28:37.046Z,99869.23
2019-02-15T22:31:13.047Z,99872.48
2019-02-15T22:33:48.866Z,99878.22
2019-02-15T22:36:23.562Z,99876.06
2019-02-15T22:38:57.758Z,99876.19
2019-02-15T22:41:32.749Z,99879.45
2019-02-15T22:44:06.804Z,99878.25
2019-02-15T22:46:40.702Z,99881.05
2019-02-15T22:49:14.448Z,99884.08
2019-02-15T22:51:48.467Z,99883.61
2019-02-15T22:54:23.664Z,99888.16
2019-02-15T22:56:57.751Z,99892.73
2019-02-15T22:59:33.342Z,99893.41
2019-02-15T23:02:07.289Z,99898.67
2019-02-15T23:04:40.613Z,99897.83
2019-02-15T23:07:14.789Z,99908.26
2019-02-15T23:09:48.707Z,99904.71
2019-02-15T23:12:23.606Z,99907.30
2019-02-15T23:14:57.268Z,99907.14
2019-02-15T23:17:31.198Z,99905.82
2019-02-15T23:20:05.680Z,99903.77
2019-02-15T23:22:39.419Z,99914.16
2019-02-15T23:25:13.301Z,99915.41
2019-02-15T23:27:47.082Z,99906.94
2019-02-15T23:30:20.601Z,99912.28
2019-02-15T23:32:54.634Z,99907.72
2019-02-15T23:35:28.312Z,99901.41
2019-02-15T23:38:02.490Z,99897.96
2019-02-15T23:40:36.846Z,99902.79
2019-02-15T23:43:10.870Z,99906.56
2019-02-15T23:45:45.033Z,99902.31
2019-02-15T23:48:19.446Z,99901.23
2019-02-15T23:50:55.211Z,99905.70
2019-02-15T23:53:27.883Z,99908.23
2019-02-15T23:56:02.310Z,99916.34
2019-02-15T23:58:38.754Z,99917.69
